createdAt,value
2019-04-28T00:01:16.183Z,9.90
2019-04-28T00:03:51.479Z,9.90
2019-04-28T00:06:25.067Z,9.90
2019-04-28T00:08:58.602Z,9.90
2019-04-28T00:11:32.091Z,9.90
2019-04-28T00:14:08.266Z,9.80
2019-04-28T00:16:41.150Z,9.80
2019-04-28T00:19:14.959Z,9.80
2019-04-28T00:21:51.702Z,9.80
2019-04-28T00:24:32.475Z,9.70
2019-04-28T00:27:06.467Z,9.60
2019-04-28T00:29:43.546Z,9.60
2019-04-28T00:32:15.202Z,9.60
2019-04-28T00:34:48.613Z,9.60
2019-04-28T00:37:23.674Z,9.60
2019-04-28T00:39:57.096Z,9.60
2019-04-28T00:42:31.524Z,9.60
2019-04-28T00:45:09.007Z,9.60
2019-04-28T00:47:42.842Z,9.60
2019-04-28T00:50:16.624Z,9.60
2019-04-28T00:52:51.746Z,9.60
2019-04-28T00:55:25.343Z,9.60
2019-04-28T00:57:58.765Z,9.60
2019-04-28T01:00:33.824Z,9.60
2019-04-28T01:03:07.243Z,9.50
2019-04-28T01:05:41.196Z,9.50
2019-04-28T01:08:14.839Z,9.50
2019-04-28T01:10:48.257Z,9.50
2019-04-28T01:13:23.912Z,9.50
2019-04-28T01:16:04.580Z,9.50
2019-04-28T01:18:40.474Z,9.50
2019-04-28T01:21:14.244Z,9.50
2019-04-28T01:23:47.655Z,9.50
2019-04-28T01:26:21.078Z,9.40
2019-04-28T01:28:54.495Z,9.40
2019-04-28T01:31:29.548Z,9.30
2019-04-28T01:34:13.382Z,9.30
2019-04-28T01:36:46.776Z,9.40
2019-04-28T01:39:20.201Z,9.40
2019-04-28T01:41:53.628Z,9.40
2019-04-28T01:44:29.223Z,9.40
2019-04-28T01:47:03.427Z,9.30
2019-04-28T01:49:36.861Z,9.30
2019-04-28T01:52:10.505Z,9.30
2019-04-28T01:54:44.277Z,9.20
2019-04-28T01:57:17.687Z,9.30
2019-04-28T01:59:51.122Z,9.30
2019-04-28T02:02:24.531Z,9.30
2019-04-28T02:04:59.694Z,9.30
2019-04-28T02:07:33.109Z,9.30
2019-04-28T02:10:06.812Z,9.40
2019-04-28T02:12:40.432Z,9.40
2019-04-28T02:15:14.197Z,9.40
2019-04-28T02:17:47.611Z,9.40
2019-04-28T02:20:22.421Z,9.40
2019-04-28T02:23:03.282Z,9.30
2019-04-28T02:25:36.712Z,9.30
2019-04-28T02:28:11.855Z,9.40
2019-04-28T02:30:50.278Z,9.30
2019-04-28T02:33:22.101Z,9.30
2019-04-28T02:35:55.525Z,9.30
2019-04-28T02:38:31.396Z,9.30
2019-04-28T02:41:04.123Z,9.30
2019-04-28T02:43:37.594Z,9.30
2019-04-28T02:46:11.356Z,9.40
2019-04-28T02:48:44.784Z,9.30
2019-04-28T02:51:22.718Z,9.30
2019-04-28T02:53:56.138Z,9.30
2019-04-28T02:56:30.861Z,9.30
2019-04-28T02:59:05.437Z,9.30
2019-04-28T03:01:40.917Z,9.40
2019-04-28T03:04:13.988Z,9.40
2019-04-28T03:06:47.425Z,9.40
2019-04-28T03:09:21.113Z,9.40
2019-04-28T03:11:54.709Z,9.40
2019-04-28T03:14:30.267Z,9.40
2019-04-28T03:17:03.417Z,9.40
2019-04-28T03:19:36.823Z,9.40
2019-04-28T03:22:11.497Z,9.40
2019-04-28T03:24:46.621Z,9.40
2019-04-28T03:27:24.629Z,9.40
2019-04-28T03:30:02.647Z,9.40
2019-04-28T03:32:52.517Z,9.40
2019-04-28T03:35:15.803Z,9.40
2019-04-28T03:37:51.303Z,9.40
2019-04-28T03:40:24.365Z,9.40
2019-04-28T03:43:00.295Z,9.40
2019-04-28T03:45:35.037Z,9.40
2019-04-28T03:48:11.256Z,9.40
2019-04-28T03:50:43.596Z,9.40
2019-04-28T03:53:17.156Z,9.40
2019-04-28T03:55:51.256Z,9.40
2019-04-28T03:58:25.000Z,9.40
2019-04-28T04:01:02.664Z,9.30
2019-04-28T04:03:33.561Z,9.40
2019-04-28T04:06:07.156Z,9.30
2019-04-28T04:08:41.028Z,9.30
2019-04-28T04:11:20.167Z,9.30
2019-04-28T04:13:58.340Z,9.30
2019-04-28T04:16:34.159Z,9.30
2019-04-28T04:19:10.626Z,9.30
2019-04-28T04:21:44.314Z,9.20
2019-04-28T04:24:20.374Z,9.20
2019-04-28T04:26:52.947Z,9.20
2019-04-28T04:29:26.416Z,9.20
2019-04-28T04:32:13.452Z,9.20
2019-04-28T04:34:34.977Z,9.20
2019-04-28T04:37:12.201Z,9.20
2019-04-28T04:39:43.679Z,9.20
2019-04-28T04:42:17.102Z,9.10
2019-04-28T04:44:50.520Z,9.20
2019-04-28T04:47:23.925Z,9.10
2019-04-28T04:49:59.961Z,9.10
2019-04-28T04:52:32.491Z,9.10
2019-04-28T04:55:06.951Z,9.10
2019-04-28T04:57:40.888Z,9.10
2019-04-28T05:00:30.655Z,9.10
2019-04-28T05:03:23.421Z,9.10
2019-04-28T05:05:56.827Z,9.00
2019-04-28T05:08:30.257Z,9.00
2019-04-28T05:11:03.679Z,9.00
2019-04-28T05:13:37.121Z,8.90
2019-04-28T05:16:10.542Z,8.90
2019-04-28T05:18:44.040Z,8.90
2019-04-28T05:21:19.210Z,8.90
2019-04-28T05:23:54.264Z,8.90
2019-04-28T05:26:27.731Z,8.90
2019-04-28T05:29:01.161Z,9.00
2019-04-28T05:31:34.576Z,8.90
2019-04-28T05:34:09.210Z,9.00
2019-04-28T05:36:44.713Z,9.00
2019-04-28T05:39:19.589Z,9.00
2019-04-28T05:41:53.222Z,9.00
2019-04-28T05:44:26.651Z,9.00
2019-04-28T05:47:00.064Z,9.10
2019-04-28T05:49:51.450Z,9.10
2019-04-28T05:52:32.787Z,9.20
2019-04-28T05:55:11.500Z,9.20
2019-04-28T05:57:53.098Z,9.20
2019-04-28T06:00:30.910Z,9.30
2019-04-28T06:03:05.962Z,9.40
2019-04-28T06:05:39.565Z,9.40
2019-04-28T06:08:14.806Z,9.40
2019-04-28T06:10:49.827Z,9.40
2019-04-28T06:13:23.493Z,9.40
2019-04-28T06:15:56.925Z,9.40
2019-04-28T06:18:30.812Z,9.40
2019-04-28T06:21:04.643Z,9.50
2019-04-28T06:23:38.052Z,9.50
2019-04-28T06:26:11.492Z,9.40
2019-04-28T06:28:44.907Z,9.40
2019-04-28T06:31:18.350Z,9.50
2019-04-28T06:33:51.743Z,9.50
2019-04-28T06:36:25.169Z,9.50
2019-04-28T06:38:58.596Z,9.50
2019-04-28T06:41:32.432Z,9.60
2019-04-28T06:44:05.919Z,9.70
2019-04-28T06:46:39.343Z,9.70
2019-04-28T06:49:12.755Z,9.70
2019-04-28T06:51:46.178Z,9.70
2019-04-28T06:54:19.587Z,9.70
2019-04-28T06:56:53.016Z,9.70
2019-04-28T06:59:26.432Z,9.80
2019-04-28T07:01:59.864Z,9.90
2019-04-28T07:04:33.283Z,9.90
2019-04-28T07:07:06.743Z,10.00
2019-04-28T07:09:40.219Z,10.00
2019-04-28T07:12:13.660Z,10.10
2019-04-28T07:14:47.140Z,10.10
2019-04-28T07:17:20.569Z,10.10
2019-04-28T07:19:58.579Z,10.10
2019-04-28T07:22:33.079Z,10.20
2019-04-28T07:25:06.832Z,10.30
2019-04-28T07:27:40.259Z,10.30
2019-04-28T07:30:16.156Z,10.30
2019-04-28T07:32:49.595Z,10.30
2019-04-28T07:35:23.279Z,10.40
2019-04-28T07:37:56.711Z,10.40
2019-04-28T07:40:30.132Z,10.50
2019-04-28T07:43:03.575Z,10.70
2019-04-28T07:45:37.148Z,10.80
2019-04-28T07:48:10.601Z,10.90
2019-04-28T07:50:44.024Z,11.00
2019-04-28T07:53:19.083Z,11.00
2019-04-28T07:55:52.499Z,11.00
2019-04-28T07:58:25.957Z,11.10
2019-04-28T08:00:59.360Z,11.20
2019-04-28T08:03:32.788Z,11.20
2019-04-28T08:06:06.280Z,11.30
2019-04-28T08:08:39.711Z,11.30
2019-04-28T08:11:13.132Z,11.40
2019-04-28T08:13:46.567Z,11.50
2019-04-28T08:16:20.159Z,11.60
2019-04-28T08:18:53.592Z,11.60
2019-04-28T08:21:27.010Z,11.60
2019-04-28T08:24:00.608Z,11.70
2019-04-28T08:26:36.217Z,11.90
2019-04-28T08:29:09.350Z,12.00
2019-04-28T08:31:44.407Z,12.10
2019-04-28T08:34:19.506Z,12.20
2019-04-28T08:36:52.967Z,12.40
2019-04-28T08:39:26.841Z,12.40
2019-04-28T08:42:00.600Z,12.30
2019-04-28T08:44:34.041Z,12.30
2019-04-28T08:47:07.456Z,12.50
2019-04-28T08:49:40.889Z,12.50
2019-04-28T08:52:14.303Z,12.50
2019-04-28T08:54:47.735Z,12.30
2019-04-28T08:57:21.155Z,12.10
2019-04-28T08:59:54.587Z,12.10
2019-04-28T09:02:27.999Z,12.20
2019-04-28T09:05:01.429Z,12.30
2019-04-28T09:07:34.843Z,12.30
2019-04-28T09:10:08.743Z,12.30
2019-04-28T09:12:42.159Z,12.50
2019-04-28T09:15:15.660Z,12.60
2019-04-28T09:17:49.081Z,12.50
2019-04-28T09:20:22.503Z,12.40
2019-04-28T09:22:55.926Z,12.30
2019-04-28T09:25:29.365Z,12.30
2019-04-28T09:28:02.786Z,12.50
2019-04-28T09:30:36.435Z,12.60
2019-04-28T09:33:09.848Z,12.60
2019-04-28T09:35:43.275Z,12.60
2019-04-28T09:38:16.701Z,12.60
2019-04-28T09:40:50.140Z,12.70
2019-04-28T09:43:25.199Z,12.80
2019-04-28T09:46:00.263Z,13.00
2019-04-28T09:48:33.684Z,13.20
2019-04-28T09:51:07.113Z,13.30
2019-04-28T09:53:40.552Z,13.30
2019-04-28T09:56:14.024Z,13.40
2019-04-28T09:58:47.439Z,13.50
2019-04-28T10:01:20.884Z,13.60
2019-04-28T10:03:54.292Z,13.80
2019-04-28T10:06:27.871Z,14.10
2019-04-28T10:09:01.286Z,14.10
2019-04-28T10:11:34.720Z,13.90
2019-04-28T10:14:08.128Z,13.80
2019-04-28T10:16:41.558Z,13.60
2019-04-28T10:19:14.967Z,13.50
2019-04-28T10:21:48.401Z,13.40
2019-04-28T10:24:21.820Z,13.30
2019-04-28T10:26:55.243Z,13.10
2019-04-28T10:29:28.656Z,13.00
2019-04-28T10:32:02.135Z,13.00
2019-04-28T10:34:35.552Z,12.90
2019-04-28T10:37:08.980Z,12.80
2019-04-28T10:39:50.169Z,12.70
2019-04-28T10:42:23.599Z,12.50
2019-04-28T10:44:57.087Z,12.50
2019-04-28T10:47:30.512Z,12.40
2019-04-28T10:50:04.873Z,12.40
2019-04-28T10:52:38.304Z,12.30
2019-04-28T10:55:11.787Z,12.20
2019-04-28T10:57:45.220Z,12.20
2019-04-28T11:00:20.920Z,12.20
2019-04-28T11:02:54.356Z,12.20
2019-04-28T11:05:29.407Z,12.20
2019-04-28T11:08:04.484Z,12.30
2019-04-28T11:10:37.899Z,12.30
2019-04-28T11:13:11.588Z,12.50
2019-04-28T11:15:45.007Z,12.50
2019-04-28T11:18:18.603Z,12.60
2019-04-28T11:20:52.015Z,12.70
2019-04-28T11:23:25.816Z,12.80
2019-04-28T11:25:59.229Z,13.00
2019-04-28T11:28:32.928Z,13.20
2019-04-28T11:31:07.748Z,13.60
2019-04-28T11:33:59.957Z,13.90
2019-04-28T11:36:33.363Z,14.10
2019-04-28T11:39:08.759Z,14.20
2019-04-28T11:41:42.170Z,14.20
2019-04-28T11:44:15.685Z,14.30
2019-04-28T11:46:49.115Z,14.40
2019-04-28T11:49:22.540Z,14.50
2019-04-28T11:51:55.993Z,14.60
2019-04-28T11:54:29.415Z,14.60
2019-04-28T11:57:02.861Z,14.60
2019-04-28T11:59:36.299Z,14.60
2019-04-28T12:02:10.004Z,14.60
2019-04-28T12:04:43.599Z,14.50
2019-04-28T12:07:17.023Z,14.40
2019-04-28T12:10:04.859Z,14.50
2019-04-28T12:12:47.941Z,14.50
2019-04-28T12:15:32.056Z,14.60
2019-04-28T12:18:19.287Z,14.70
2019-04-28T12:20:52.775Z,14.70
2019-04-28T12:23:26.203Z,14.70
2019-04-28T12:25:59.656Z,14.70
2019-04-28T12:28:33.137Z,14.70
2019-04-28T12:31:06.564Z,14.50
2019-04-28T12:33:40.003Z,14.40
2019-04-28T12:36:13.432Z,14.40
2019-04-28T12:38:46.867Z,14.40
2019-04-28T12:41:20.333Z,14.30
2019-04-28T12:43:53.754Z,14.50
2019-04-28T12:46:27.180Z,14.60
2019-04-28T12:49:02.247Z,14.70
2019-04-28T12:51:35.667Z,14.80
2019-04-28T12:54:10.742Z,14.80
2019-04-28T12:56:44.159Z,14.80
2019-04-28T12:59:19.231Z,14.90
2019-04-28T13:01:54.284Z,14.90
2019-04-28T13:04:29.355Z,15.00
2019-04-28T13:07:04.439Z,15.00
2019-04-28T13:09:37.871Z,15.00
2019-04-28T13:12:11.287Z,15.00
2019-04-28T13:14:44.720Z,15.00
2019-04-28T13:17:18.139Z,15.00
2019-04-28T13:19:51.563Z,15.00
2019-04-28T13:22:24.987Z,15.10
2019-04-28T13:24:58.415Z,15.10
2019-04-28T13:27:31.845Z,15.10
2019-04-28T13:30:07.404Z,15.20
2019-04-28T13:32:40.830Z,15.30
2019-04-28T13:35:15.564Z,15.20
2019-04-28T13:37:48.984Z,15.10
2019-04-28T13:40:29.731Z,15.20
2019-04-28T13:43:03.151Z,15.20
2019-04-28T13:45:37.135Z,15.20
2019-04-28T13:48:10.544Z,15.20
2019-04-28T13:50:43.995Z,15.10
2019-04-28T13:53:17.478Z,15.00
2019-04-28T13:55:52.547Z,15.00
2019-04-28T13:58:30.798Z,15.00
2019-04-28T14:01:20.867Z,14.90
2019-04-28T14:03:59.007Z,15.00
2019-04-28T14:06:34.119Z,15.10
2019-04-28T14:09:10.573Z,15.30
2019-04-28T14:11:44.123Z,15.50
2019-04-28T14:14:17.534Z,16.40
2019-04-28T14:16:50.987Z,17.10
2019-04-28T14:19:24.464Z,17.00
2019-04-28T14:21:57.903Z,16.60
2019-04-28T14:24:31.351Z,16.30
2019-04-28T14:27:04.901Z,16.00
2019-04-28T14:29:38.315Z,15.90
2019-04-28T14:32:11.748Z,15.70
2019-04-28T14:34:45.154Z,15.50
2019-04-28T14:37:18.586Z,15.30
2019-04-28T14:39:52.038Z,15.30
2019-04-28T14:42:25.513Z,15.20
2019-04-28T14:44:59.008Z,15.10
2019-04-28T14:47:32.455Z,15.00
2019-04-28T14:50:07.522Z,15.00
2019-04-28T14:52:40.945Z,15.00
2019-04-28T14:55:14.359Z,15.00
2019-04-28T14:57:47.775Z,15.00
2019-04-28T15:00:29.061Z,15.10
2019-04-28T15:03:06.928Z,15.10
2019-04-28T15:05:50.835Z,15.20
2019-04-28T15:08:37.357Z,15.60
2019-04-28T15:11:12.428Z,15.70
2019-04-28T15:13:45.839Z,15.60
2019-04-28T15:16:19.277Z,15.50
2019-04-28T15:18:52.684Z,15.50
2019-04-28T15:21:26.111Z,15.40
2019-04-28T15:23:59.543Z,15.40
2019-04-28T15:26:32.971Z,15.40
2019-04-28T15:29:06.384Z,15.40
2019-04-28T15:31:39.875Z,15.40
2019-04-28T15:34:13.371Z,15.40
2019-04-28T15:36:46.799Z,15.40
2019-04-28T15:39:20.207Z,15.40
2019-04-28T15:41:53.631Z,15.60
2019-04-28T15:44:27.051Z,16.30
2019-04-28T15:47:00.486Z,16.90
2019-04-28T15:49:33.894Z,17.50
2019-04-28T15:52:07.319Z,17.60
2019-04-28T15:54:40.739Z,17.50
2019-04-28T15:57:14.159Z,17.30
2019-04-28T15:59:47.698Z,16.90
2019-04-28T16:02:21.203Z,16.70
2019-04-28T16:04:54.604Z,16.50
2019-04-28T16:07:28.057Z,16.30
2019-04-28T16:10:01.456Z,16.00
2019-04-28T16:12:34.890Z,15.80
2019-04-28T16:15:08.543Z,15.70
2019-04-28T16:17:41.971Z,15.50
2019-04-28T16:20:15.923Z,15.60
2019-04-28T16:22:49.351Z,15.70
2019-04-28T16:25:22.767Z,15.70
2019-04-28T16:27:56.219Z,15.70
2019-04-28T16:30:29.626Z,15.70
2019-04-28T16:33:03.059Z,16.00
2019-04-28T16:35:36.479Z,16.20
2019-04-28T16:38:09.907Z,16.30
2019-04-28T16:40:43.397Z,16.20
2019-04-28T16:43:16.823Z,16.00
2019-04-28T16:45:50.249Z,16.10
2019-04-28T16:48:23.672Z,16.20
2019-04-28T16:50:57.088Z,16.20
2019-04-28T16:53:30.719Z,16.00
2019-04-28T16:56:05.844Z,15.90
2019-04-28T16:58:43.713Z,15.90
2019-04-28T17:01:18.767Z,16.00
2019-04-28T17:03:52.194Z,16.10
2019-04-28T17:06:25.675Z,16.10
2019-04-28T17:08:59.100Z,15.90
2019-04-28T17:11:32.541Z,15.80
2019-04-28T17:14:05.951Z,15.70
2019-04-28T17:16:39.366Z,15.60
2019-04-28T17:19:12.789Z,15.60
2019-04-28T17:21:46.208Z,15.50
2019-04-28T17:24:19.631Z,15.40
2019-04-28T17:26:53.115Z,15.40
2019-04-28T17:29:26.552Z,15.30
2019-04-28T17:31:59.979Z,15.20
2019-04-28T17:34:33.410Z,15.10
2019-04-28T17:37:07.491Z,15.10
2019-04-28T17:39:40.923Z,15.00
2019-04-28T17:42:15.307Z,14.90
2019-04-28T17:44:48.736Z,14.80
2019-04-28T17:47:23.120Z,14.80
2019-04-28T17:49:56.556Z,14.70
2019-04-28T17:52:29.974Z,14.70
2019-04-28T17:55:04.296Z,14.60
2019-04-28T17:57:37.711Z,14.50
2019-04-28T18:00:28.212Z,14.50
2019-04-28T18:03:18.455Z,14.40
2019-04-28T18:05:59.295Z,14.20
2019-04-28T18:08:33.079Z,14.20
2019-04-28T18:11:06.503Z,14.10
2019-04-28T18:13:39.950Z,14.00
2019-04-28T18:16:17.863Z,13.90
2019-04-28T18:18:55.944Z,13.90
2019-04-28T18:21:29.360Z,13.80
2019-04-28T18:24:02.797Z,13.70
2019-04-28T18:26:36.212Z,13.60
2019-04-28T18:29:09.673Z,13.50
2019-04-28T18:31:50.756Z,13.50
2019-04-28T18:34:25.814Z,13.50
2019-04-28T18:37:00.952Z,13.30
2019-04-28T18:39:52.407Z,13.30
2019-04-28T18:42:33.425Z,13.20
2019-04-28T18:45:07.399Z,13.10
2019-04-28T18:47:40.830Z,13.00
2019-04-28T18:50:15.674Z,12.90
2019-04-28T18:52:49.093Z,12.80
2019-04-28T18:55:22.584Z,12.80
2019-04-28T18:57:55.995Z,12.70
2019-04-28T19:00:31.080Z,12.60
2019-04-28T19:03:04.740Z,12.50
2019-04-28T19:05:39.798Z,12.40
2019-04-28T19:08:17.571Z,12.30
2019-04-28T19:10:58.696Z,12.20
2019-04-28T19:13:33.747Z,12.10
2019-04-28T19:16:18.060Z,12.10
2019-04-28T19:18:53.115Z,12.10
2019-04-28T19:21:26.548Z,11.90
2019-04-28T19:23:59.970Z,11.90
2019-04-28T19:26:33.407Z,11.80
2019-04-28T19:29:06.822Z,11.80
2019-04-28T19:31:40.255Z,11.80
2019-04-28T19:34:13.670Z,11.70
2019-04-28T19:36:47.391Z,11.70
2019-04-28T19:39:20.808Z,11.60
2019-04-28T19:41:55.673Z,11.50
2019-04-28T19:44:29.078Z,11.40
2019-04-28T19:47:02.505Z,11.30
2019-04-28T19:49:35.919Z,11.30
2019-04-28T19:52:09.364Z,11.30
2019-04-28T19:55:00.935Z,11.40
2019-04-28T19:57:47.951Z,11.30
2019-04-28T20:00:35.383Z,11.20
2019-04-28T20:03:08.824Z,11.10
2019-04-28T20:05:42.241Z,11.00
2019-04-28T20:08:15.672Z,10.90
2019-04-28T20:10:49.163Z,10.80
2019-04-28T20:13:23.368Z,10.70
2019-04-28T20:15:56.781Z,10.70
2019-04-28T20:18:30.212Z,10.60
2019-04-28T20:21:03.633Z,10.50
2019-04-28T20:23:37.059Z,10.50
2019-04-28T20:26:10.483Z,10.40
2019-04-28T20:28:43.922Z,10.30
2019-04-28T20:31:17.462Z,10.30
2019-04-28T20:33:50.880Z,10.30
2019-04-28T20:36:25.927Z,10.20
2019-04-28T20:39:01.004Z,10.10
2019-04-28T20:41:34.419Z,10.10
2019-04-28T20:44:07.881Z,10.00
2019-04-28T20:46:41.293Z,10.00
2019-04-28T20:49:14.724Z,10.00
2019-04-28T20:51:48.135Z,9.90
2019-04-28T20:54:21.572Z,9.90
2019-04-28T20:56:54.985Z,9.90
2019-04-28T20:59:28.403Z,9.80
2019-04-28T21:02:01.821Z,9.80
2019-04-28T21:04:35.243Z,9.70
2019-04-28T21:07:08.664Z,9.60
2019-04-28T21:09:42.087Z,9.70
2019-04-28T21:12:15.503Z,9.60
2019-04-28T21:14:48.944Z,9.60
2019-04-28T21:17:22.350Z,9.50
2019-04-28T21:19:55.810Z,9.50
2019-04-28T21:22:29.231Z,9.40
2019-04-28T21:25:02.827Z,9.30
2019-04-28T21:27:36.243Z,9.30
2019-04-28T21:30:10.407Z,9.20
2019-04-28T21:32:43.828Z,9.20
2019-04-28T21:35:17.259Z,9.30
2019-04-28T21:37:50.691Z,9.30
2019-04-28T21:40:24.767Z,9.30
2019-04-28T21:43:02.316Z,9.30
2019-04-28T21:45:53.729Z,9.20
2019-04-28T21:48:31.828Z,9.20
2019-04-28T21:51:05.255Z,9.10
2019-04-28T21:53:38.673Z,9.10
2019-04-28T21:56:12.107Z,9.00
2019-04-28T21:58:45.519Z,9.00
2019-04-28T22:01:21.847Z,9.00
2019-04-28T22:03:55.335Z,9.00
2019-04-28T22:06:28.765Z,9.00
2019-04-28T22:09:02.203Z,9.00
2019-04-28T22:11:35.611Z,9.00
2019-04-28T22:14:09.106Z,8.90
2019-04-28T22:16:42.511Z,8.90
2019-04-28T22:19:15.975Z,8.90
2019-04-28T22:21:49.387Z,8.90
2019-04-28T22:24:33.472Z,8.90
2019-04-28T22:27:08.253Z,8.80
2019-04-28T22:29:41.683Z,8.80
2019-04-28T22:32:15.091Z,8.80
2019-04-28T22:34:48.518Z,8.80
2019-04-28T22:37:21.952Z,8.80
2019-04-28T22:39:55.379Z,8.70
2019-04-28T22:42:28.798Z,8.70
2019-04-28T22:45:02.367Z,8.70
2019-04-28T22:47:35.867Z,8.70
2019-04-28T22:50:31.875Z,8.70
2019-04-28T22:53:05.595Z,8.70
2019-04-28T22:55:40.663Z,8.70
2019-04-28T22:58:24.662Z,8.70
2019-04-28T23:01:08.867Z,8.70
2019-04-28T23:03:46.992Z,8.70
2019-04-28T23:06:20.669Z,8.60
2019-04-28T23:08:54.107Z,8.60
2019-04-28T23:11:27.597Z,8.60
2019-04-28T23:14:01.016Z,8.60
2019-04-28T23:16:34.720Z,8.60
2019-04-28T23:19:09.769Z,8.70
2019-04-28T23:21:51.139Z,8.80
2019-04-28T23:24:24.555Z,8.80
2019-04-28T23:26:58.075Z,8.90
2019-04-28T23:29:31.499Z,8.90
2019-04-28T23:32:05.223Z,9.00
2019-04-28T23:34:38.654Z,9.00
2019-04-28T23:37:12.084Z,9.00
2019-04-28T23:39:45.648Z,8.90
2019-04-28T23:42:20.707Z,8.90
2019-04-28T23:44:54.114Z,8.90
2019-04-28T23:47:27.548Z,8.90
2019-04-28T23:50:00.960Z,8.90
2019-04-28T23:52:36.055Z,8.90
2019-04-28T23:55:10.607Z,8.90
2019-04-28T23:57:44.026Z,8.90
